Time;durP1;ratioP1;P1;durP2;ratioP2;P2;SDS_P1;SDS_P2;PMS_P1;PMS_P2;Temp;Humidity;BMP_temperature;BMP_pressure;BME280_temperature;BME280_humidity;BME280_pressure;Samples;Min_cycle;Max_cycle;Signal;HPM_P1;HPM_P2
2021/04/25 00:01:35;;;;;;;5.82;2.88;;;6.30;90.30;;;;;;5030457;28;20467;-67
2021/04/25 00:04:01;;;;;;;9.43;2.65;;;6.40;90.00;;;;;;5024241;28;20126;-67
2021/04/25 00:06:27;;;;;;;4.90;2.17;;;6.40;90.20;;;;;;5022904;28;20069;-67
2021/04/25 00:08:53;;;;;;;6.47;2.78;;;6.40;90.30;;;;;;5022365;28;20030;-67
2021/04/25 00:11:19;;;;;;;11.23;2.65;;;6.40;90.40;;;;;;5019381;28;20041;-67
2021/04/25 00:13:45;;;;;;;4.25;1.98;;;6.40;89.60;;;;;;5021214;28;20045;-67
2021/04/25 00:16:11;;;;;;;8.38;2.22;;;6.40;89.70;;;;;;5023894;28;20092;-67
2021/04/25 00:18:38;;;;;;;9.15;2.35;;;6.30;89.20;;;;;;5026137;28;20049;-67
2021/04/25 00:21:04;;;;;;;7.60;2.38;;;6.30;88.00;;;;;;5029148;28;20044;-67
2021/04/25 00:23:30;;;;;;;7.60;2.38;;;6.30;88.30;;;;;;5026319;28;20071;-67
2021/04/25 00:25:56;;;;;;;6.22;2.13;;;6.40;88.60;;;;;;5024206;28;20123;-67
2021/04/25 00:28:22;;;;;;;6.97;2.42;;;6.30;89.20;;;;;;5028850;28;20044;-67
2021/04/25 00:30:48;;;;;;;6.65;2.17;;;6.30;88.90;;;;;;5030910;28;20108;-67
2021/04/25 00:33:13;;;;;;;6.07;2.00;;;6.40;88.70;;;;;;5030050;28;20124;-67
2021/04/25 00:35:39;;;;;;;6.30;2.08;;;6.40;89.10;;;;;;5029130;28;20124;-67
2021/04/25 00:38:05;;;;;;;8.77;2.67;;;6.30;89.60;;;;;;5030533;28;20468;-67
2021/04/25 00:40:31;;;;;;;5.50;1.85;;;6.40;89.50;;;;;;5028169;28;20100;-67
2021/04/25 00:42:57;;;;;;;8.60;2.28;;;6.40;89.50;;;;;;5030692;28;20501;-67
2021/04/25 00:45:22;;;;;;;9.95;1.80;;;6.30;89.80;;;;;;5030664;28;20041;-67
2021/04/25 00:47:49;;;;;;;7.28;1.80;;;6.30;89.60;;;;;;5026247;28;20209;-67
2021/04/25 00:50:20;;;;;;;5.80;1.80;;;6.40;90.10;;;;;;5022477;28;20060;-67
2021/04/25 00:52:47;;;;;;;11.82;1.45;;;6.40;90.00;;;;;;5026981;28;20041;-67
2021/04/25 00:55:15;;;;;;;6.68;1.70;;;6.30;89.60;;;;;;5026892;28;20048;-67
2021/04/25 00:57:41;;;;;;;7.45;1.85;;;6.40;89.60;;;;;;5028212;28;20167;-67
2021/04/25 01:00:11;;;;;;;7.68;1.45;;;6.30;89.60;;;;;;5029387;28;20067;-66
2021/04/25 01:02:37;;;;;;;10.75;1.83;;;6.40;89.90;;;;;;5028335;28;20503;-67
2021/04/25 01:05:05;;;;;;;2.97;1.20;;;6.40;89.30;;;;;;5022022;28;20038;-66
2021/04/25 01:07:31;;;;;;;8.88;1.58;;;6.40;88.80;;;;;;5027741;28;20613;-67
2021/04/25 01:09:57;;;;;;;6.38;1.23;;;6.30;88.50;;;;;;5022458;28;20037;-67
2021/04/25 01:12:23;;;;;;;4.75;1.20;;;6.30;89.80;;;;;;5021402;28;20043;-67
2021/04/25 01:14:49;;;;;;;4.22;1.35;;;6.20;89.50;;;;;;5023020;28;20125;-67
2021/04/25 01:17:14;;;;;;;8.05;0.90;;;6.20;88.40;;;;;;5020214;28;20128;-67
2021/04/25 01:19:40;;;;;;;6.47;0.90;;;6.20;89.50;;;;;;5018316;28;20488;-67
2021/04/25 01:22:06;;;;;;;8.50;2.45;;;6.20;89.80;;;;;;5019752;28;20045;-67
2021/04/25 01:24:32;;;;;;;3.70;1.10;;;6.10;90.10;;;;;;5018532;28;21563;-67
2021/04/25 01:26:58;;;;;;;4.47;1.10;;;6.10;89.30;;;;;;5019691;28;20113;-67
2021/04/25 01:29:23;;;;;;;7.13;1.00;;;6.10;90.00;;;;;;5022053;28;20038;-67
2021/04/25 01:31:49;;;;;;;7.70;1.13;;;6.10;89.90;;;;;;5021908;28;20057;-67
2021/04/25 01:34:15;;;;;;;9.18;1.30;;;6.20;90.30;;;;;;5020071;28;20049;-67
2021/04/25 01:36:41;;;;;;;7.85;0.98;;;6.10;90.10;;;;;;5020615;28;20041;-67
2021/04/25 01:39:06;;;;;;;8.75;1.30;;;6.10;90.00;;;;;;5021160;28;20045;-67
2021/04/25 01:41:33;;;;;;;7.93;1.00;;;6.10;90.00;;;;;;5019876;28;20519;-67
2021/04/25 01:44:00;;;;;;;5.05;1.55;;;6.00;89.80;;;;;;5021153;28;20046;-67
2021/04/25 01:46:25;;;;;;;6.50;0.90;;;6.10;90.20;;;;;;5020763;28;20037;-67
2021/04/25 01:48:51;;;;;;;8.10;1.20;;;6.00;89.80;;;;;;5021323;28;20048;-67
2021/04/25 01:51:17;;;;;;;9.07;0.85;;;6.00;90.10;;;;;;5019145;28;20041;-67
2021/04/25 01:53:43;;;;;;;8.80;2.20;;;6.00;90.30;;;;;;5017726;28;20069;-67
2021/04/25 01:56:09;;;;;;;8.25;1.48;;;6.10;90.50;;;;;;5018254;28;20137;-67
2021/04/25 01:58:34;;;;;;;8.75;1.80;;;6.20;90.50;;;;;;5018671;28;20541;-67
2021/04/25 02:01:00;;;;;;;3.97;0.93;;;6.20;90.20;;;;;;5022469;28;21030;-67
2021/04/25 02:03:26;;;;;;;5.63;1.23;;;6.20;89.00;;;;;;5020349;28;20062;-67
2021/04/25 02:05:52;;;;;;;10.80;1.65;;;6.20;88.20;;;;;;5019049;28;20496;-67
2021/04/25 02:08:18;;;;;;;9.35;1.73;;;6.10;88.10;;;;;;5019210;28;20071;-67
2021/04/25 02:10:45;;;;;;;7.40;1.75;;;6.10;88.80;;;;;;5019429;28;20038;-67
2021/04/25 02:13:11;;;;;;;7.68;1.27;;;6.00;89.10;;;;;;5020895;28;20033;-67
2021/04/25 02:15:39;;;;;;;8.60;1.50;;;6.00;90.00;;;;;;5020330;28;20045;-66
2021/04/25 02:18:06;;;;;;;10.52;1.73;;;6.00;90.10;;;;;;5022819;28;20037;-67
2021/04/25 02:20:33;;;;;;;7.32;1.83;;;6.00;89.10;;;;;;5020179;28;20632;-67
2021/04/25 02:22:59;;;;;;;11.85;1.83;;;6.00;89.10;;;;;;5020795;28;20076;-67
2021/04/25 02:25:25;;;;;;;10.10;1.92;;;6.10;89.40;;;;;;5019511;28;20068;-67
2021/04/25 02:27:52;;;;;;;8.23;1.40;;;6.10;90.10;;;;;;5020044;28;20483;-67
2021/04/25 02:30:21;;;;;;;11.70;1.95;;;6.00;90.30;;;;;;5035777;28;20124;-67
2021/04/25 02:32:49;;;;;;;13.73;2.10;;;6.00;90.30;;;;;;5021674;28;20038;-67
2021/04/25 02:35:16;;;;;;;9.80;1.88;;;6.00;90.30;;;;;;5021119;28;20042;-67
2021/04/25 02:37:42;;;;;;;10.25;1.58;;;6.00;90.60;;;;;;5018451;28;20045;-67
2021/04/25 02:40:10;;;;;;;7.85;1.80;;;6.00;90.30;;;;;;5022736;28;20052;-67
2021/04/25 02:42:37;;;;;;;8.73;1.55;;;6.00;90.50;;;;;;5019541;28;20103;-67
2021/04/25 02:45:05;;;;;;;10.30;1.65;;;6.10;90.20;;;;;;5020632;28;20036;-67
2021/04/25 02:47:31;;;;;;;10.63;1.67;;;6.10;90.00;;;;;;5019347;28;20041;-67
2021/04/25 02:49:57;;;;;;;7.07;1.30;;;6.10;90.10;;;;;;5020861;28;20654;-67
2021/04/25 02:52:25;;;;;;;13.05;1.58;;;6.10;90.20;;;;;;5018980;28;20140;-66
2021/04/25 02:54:53;;;;;;;8.45;1.60;;;6.00;90.00;;;;;;5019112;28;20033;-67
2021/04/25 02:57:19;;;;;;;8.70;1.10;;;6.00;90.50;;;;;;5019671;28;20111;-67
2021/04/25 02:59:45;;;;;;;7.55;1.20;;;6.00;90.80;;;;;;5019536;28;20044;-67
2021/04/25 03:02:10;;;;;;;11.00;1.20;;;6.10;90.60;;;;;;5019880;28;20042;-67
2021/04/25 03:04:36;;;;;;;7.82;1.40;;;6.00;90.30;;;;;;5015633;28;20410;-66
2021/04/25 03:07:02;;;;;;;6.68;1.58;;;6.00;90.50;;;;;;5019856;28;20403;-67
2021/04/25 03:09:28;;;;;;;9.45;1.38;;;6.00;90.20;;;;;;5020610;28;20080;-67
2021/04/25 03:11:53;;;;;;;10.57;1.48;;;6.00;90.30;;;;;;5017836;28;20057;-67
2021/04/25 03:14:19;;;;;;;12.05;1.23;;;6.00;90.50;;;;;;5019863;28;20422;-67
2021/04/25 03:16:45;;;;;;;10.90;1.10;;;6.00;90.50;;;;;;5019975;28;20068;-67
2021/04/25 03:19:10;;;;;;;13.40;1.77;;;5.90;90.50;;;;;;5025239;28;20040;-67
2021/04/25 03:21:36;;;;;;;5.97;1.00;;;6.00;90.70;;;;;;5026045;28;20476;-67
2021/04/25 03:24:03;;;;;;;7.68;1.05;;;6.00;90.60;;;;;;5025709;28;20064;-67
2021/04/25 03:26:28;;;;;;;7.78;1.88;;;6.00;90.60;;;;;;5026085;28;20119;-67
2021/04/25 03:28:54;;;;;;;4.22;0.60;;;6.00;90.70;;;;;;5028395;28;20472;-67
2021/04/25 03:31:20;;;;;;;8.80;0.85;;;6.00;90.80;;;;;;5023927;28;20037;-67
2021/04/25 03:33:46;;;;;;;10.88;1.10;;;6.00;91.00;;;;;;5029052;28;20506;-67
2021/04/25 03:36:11;;;;;;;6.90;1.38;;;6.10;91.20;;;;;;5026468;28;20037;-67
2021/04/25 03:38:37;;;;;;;9.43;1.25;;;6.00;91.10;;;;;;5026983;28;20037;-67
2021/04/25 03:41:03;;;;;;;5.05;0.98;;;6.10;91.30;;;;;;5026043;28;20452;-67
2021/04/25 03:43:29;;;;;;;6.32;1.10;;;6.00;91.20;;;;;;5026149;28;20089;-67
2021/04/25 03:45:55;;;;;;;9.38;1.05;;;6.00;91.30;;;;;;5025689;28;20502;-67
2021/04/25 03:48:21;;;;;;;13.73;1.40;;;6.10;91.60;;;;;;5022852;28;20504;-66
2021/04/25 03:50:47;;;;;;;5.20;0.65;;;6.10;91.20;;;;;;5022611;28;20382;-67
2021/04/25 03:53:13;;;;;;;11.45;1.15;;;6.10;91.30;;;;;;5023526;28;20042;-67
2021/04/25 03:55:39;;;;;;;11.35;2.63;;;6.10;91.30;;;;;;5025942;28;20045;-67
2021/04/25 03:58:05;;;;;;;16.35;1.92;;;6.00;91.10;;;;;;5028055;28;20041;-67
2021/04/25 04:00:31;;;;;;;9.20;1.00;;;6.00;91.40;;;;;;5025588;28;20506;-66
2021/04/25 04:02:56;;;;;;;7.18;1.10;;;5.90;91.40;;;;;;5027698;28;20041;-67
2021/04/25 04:05:22;;;;;;;8.95;0.90;;;6.00;91.50;;;;;;5024600;28;20038;-67
2021/04/25 04:07:48;;;;;;;3.42;0.77;;;6.00;91.70;;;;;;5027938;28;20040;-67
2021/04/25 04:10:14;;;;;;;11.43;1.15;;;6.00;91.80;;;;;;5027593;28;20139;-67
2021/04/25 04:12:40;;;;;;;10.48;1.10;;;6.00;91.80;;;;;;5025104;28;20079;-67
2021/04/25 04:15:07;;;;;;;10.98;1.63;;;6.00;91.80;;;;;;5024695;28;20047;-67
2021/04/25 04:17:32;;;;;;;6.68;0.73;;;6.00;91.80;;;;;;5026860;28;20542;-67
2021/04/25 04:19:58;;;;;;;11.05;1.23;;;6.00;91.70;;;;;;5026583;28;20037;-67
2021/04/25 04:22:24;;;;;;;7.28;1.00;;;6.00;91.80;;;;;;5026659;28;20041;-66
2021/04/25 04:24:50;;;;;;;6.50;1.00;;;6.00;91.70;;;;;;5027797;28;20466;-67
2021/04/25 04:27:15;;;;;;;7.88;0.80;;;6.00;91.70;;;;;;5025988;28;20040;-67
2021/04/25 04:29:41;;;;;;;5.90;0.77;;;6.00;91.80;;;;;;5025328;28;20450;-67
2021/04/25 04:32:07;;;;;;;6.35;0.77;;;6.00;91.70;;;;;;5030315;28;20059;-67
2021/04/25 04:34:33;;;;;;;7.32;0.85;;;6.00;91.70;;;;;;5030491;28;20048;-67
2021/04/25 04:36:58;;;;;;;8.73;1.10;;;6.00;91.50;;;;;;5029455;28;20455;-67
2021/04/25 04:39:24;;;;;;;11.38;0.90;;;6.00;91.40;;;;;;5028723;28;20095;-67
2021/04/25 04:41:50;;;;;;;6.85;1.10;;;6.00;91.00;;;;;;5028599;28;20458;-67
2021/04/25 04:44:17;;;;;;;5.55;0.80;;;6.00;91.20;;;;;;5030263;28;20072;-67
2021/04/25 04:46:43;;;;;;;11.82;0.90;;;6.00;91.20;;;;;;5029925;28;20042;-67
2021/04/25 04:49:09;;;;;;;8.60;1.73;;;6.00;91.00;;;;;;5028124;28;20029;-67
2021/04/25 04:51:34;;;;;;;6.47;0.70;;;6.00;91.00;;;;;;5029332;28;20537;-67
2021/04/25 04:54:00;;;;;;;11.07;1.67;;;6.00;91.30;;;;;;5029972;28;20049;-67
2021/04/25 04:56:26;;;;;;;8.38;1.33;;;5.90;91.50;;;;;;5028970;28;20140;-67
2021/04/25 04:58:52;;;;;;;7.78;1.13;;;6.00;91.50;;;;;;5026783;28;20051;-67
2021/04/25 05:01:18;;;;;;;14.68;1.55;;;6.10;91.60;;;;;;5029234;28;20041;-67
2021/04/25 05:03:44;;;;;;;5.65;0.80;;;6.10;91.70;;;;;;5029366;28;20042;-67
2021/04/25 05:06:09;;;;;;;7.35;1.13;;;6.00;91.50;;;;;;5029266;28;20065;-67
2021/04/25 05:08:35;;;;;;;15.20;1.23;;;6.10;91.70;;;;;;5029519;28;20053;-67
2021/04/25 05:11:01;;;;;;;12.13;1.52;;;6.20;91.80;;;;;;5028103;28;20487;-67
2021/04/25 05:13:26;;;;;;;8.35;1.25;;;6.20;91.60;;;;;;5025822;28;20755;-67
2021/04/25 05:15:52;;;;;;;8.00;1.38;;;6.10;91.60;;;;;;5029931;28;20044;-67
2021/04/25 05:18:18;;;;;;;16.90;1.25;;;6.30;91.40;;;;;;5027150;28;20033;-67
2021/04/25 05:20:43;;;;;;;13.25;1.33;;;6.20;91.20;;;;;;5029967;28;20037;-67
2021/04/25 05:23:09;;;;;;;8.23;0.63;;;6.20;91.30;;;;;;5029539;28;20029;-67
2021/04/25 05:25:35;;;;;;;7.75;1.20;;;6.20;91.30;;;;;;5028465;28;20087;-67
2021/04/25 05:28:01;;;;;;;9.10;1.10;;;6.30;91.50;;;;;;5024138;28;20049;-67
2021/04/25 05:30:26;;;;;;;9.13;0.88;;;6.30;91.40;;;;;;5028398;28;20125;-67
2021/04/25 05:32:52;;;;;;;7.28;1.08;;;6.30;91.50;;;;;;5029007;28;20056;-66
2021/04/25 05:35:18;;;;;;;9.40;1.00;;;6.30;91.70;;;;;;5029419;28;20099;-67
2021/04/25 05:37:44;;;;;;;6.20;0.90;;;6.30;91.50;;;;;;5028549;28;20037;-67
2021/04/25 05:40:12;;;;;;;7.15;1.20;;;6.30;91.70;;;;;;5024378;28;20033;-67
2021/04/25 05:42:39;;;;;;;12.75;1.38;;;6.40;91.50;;;;;;5029631;28;20041;-67
2021/04/25 05:45:06;;;;;;;13.27;1.13;;;6.40;91.50;;;;;;5027458;28;20479;-67
2021/04/25 05:47:32;;;;;;;8.77;1.05;;;6.50;91.10;;;;;;5023556;28;20127;-67
2021/04/25 05:49:58;;;;;;;9.10;1.33;;;6.60;90.90;;;;;;5024523;28;20095;-67
2021/04/25 05:52:23;;;;;;;12.23;2.33;;;6.60;91.00;;;;;;5022783;28;20084;-67
2021/04/25 05:54:49;;;;;;;7.90;0.80;;;6.70;90.80;;;;;;5023487;28;20033;-67
2021/04/25 05:57:15;;;;;;;10.50;0.85;;;6.60;90.90;;;;;;5022862;28;20052;-66
2021/04/25 05:59:41;;;;;;;13.32;1.50;;;6.70;91.00;;;;;;5020518;28;20036;-67
2021/04/25 06:02:06;;;;;;;6.15;1.00;;;6.60;90.80;;;;;;5019766;28;20038;-67
2021/04/25 06:04:33;;;;;;;9.40;1.08;;;6.60;90.80;;;;;;5021931;28;20087;-66
2021/04/25 06:07:00;;;;;;;7.35;0.85;;;6.70;90.50;;;;;;5021449;28;20037;-67
2021/04/25 06:09:26;;;;;;;7.28;0.98;;;6.70;90.60;;;;;;5021128;28;20059;-67
2021/04/25 06:11:52;;;;;;;7.38;1.15;;;6.70;90.40;;;;;;5024230;28;20510;-67
2021/04/25 06:14:18;;;;;;;9.25;0.68;;;6.70;90.60;;;;;;5026460;28;20034;-67
2021/04/25 06:16:44;;;;;;;13.23;1.75;;;6.80;91.00;;;;;;5028324;28;20049;-67
2021/04/25 06:19:11;;;;;;;9.55;1.02;;;6.80;91.00;;;;;;5026170;28;20037;-66
2021/04/25 06:21:36;;;;;;;12.25;1.88;;;6.80;90.80;;;;;;5026330;28;20467;-66
2021/04/25 06:24:03;;;;;;;10.82;1.58;;;6.90;90.10;;;;;;5029365;28;20052;-66
2021/04/25 06:26:28;;;;;;;9.32;0.98;;;6.90;88.40;;;;;;5020612;28;20046;-66
2021/04/25 06:28:54;;;;;;;12.07;0.93;;;6.90;90.00;;;;;;5023004;28;20037;-67
2021/04/25 06:31:25;;;;;;;9.10;0.75;;;6.90;89.90;;;;;;5024772;28;20042;-66
2021/04/25 06:33:51;;;;;;;14.18;1.60;;;6.80;87.80;;;;;;5026061;28;20044;-66
2021/04/25 06:36:17;;;;;;;7.82;0.70;;;6.80;88.60;;;;;;5028678;28;20041;-66
2021/04/25 06:38:43;;;;;;;12.05;1.35;;;6.80;88.70;;;;;;5027805;28;20045;-66
2021/04/25 06:41:09;;;;;;;8.73;1.00;;;6.90;89.50;;;;;;5029063;28;20046;-66
2021/04/25 06:43:34;;;;;;;10.77;1.40;;;7.00;90.00;;;;;;5025613;28;20032;-66
2021/04/25 06:46:01;;;;;;;11.13;1.05;;;7.10;88.60;;;;;;5026511;28;20049;-66
2021/04/25 06:48:27;;;;;;;10.20;1.55;;;7.10;88.70;;;;;;5027831;28;20060;-66
2021/04/25 06:50:53;;;;;;;8.35;1.13;;;7.00;88.60;;;;;;5025478;28;20455;-66
2021/04/25 06:53:19;;;;;;;6.93;1.52;;;7.00;89.50;;;;;;5026309;28;20558;-66
2021/04/25 06:55:44;;;;;;;10.13;1.20;;;7.10;90.10;;;;;;5025301;28;20041;-66
2021/04/25 06:58:10;;;;;;;14.20;1.27;;;7.10;89.10;;;;;;5026213;28;20037;-66
2021/04/25 07:00:36;;;;;;;8.63;1.17;;;7.20;89.60;;;;;;5019206;28;20077;-66
2021/04/25 07:03:02;;;;;;;10.98;2.10;;;7.20;89.30;;;;;;5028581;28;20076;-66
2021/04/25 07:05:28;;;;;;;7.15;1.20;;;7.30;89.80;;;;;;5027758;28;20087;-66
2021/04/25 07:07:56;;;;;;;10.95;1.42;;;7.30;88.80;;;;;;5026426;28;20468;-66
2021/04/25 07:10:22;;;;;;;11.70;1.15;;;7.40;88.50;;;;;;5026603;28;20043;-66
2021/04/25 07:12:48;;;;;;;7.22;1.15;;;7.40;89.60;;;;;;5028262;28;20037;-66
2021/04/25 07:15:14;;;;;;;11.85;1.02;;;7.60;88.20;;;;;;5027314;28;20057;-66
2021/04/25 07:17:39;;;;;;;8.02;1.23;;;7.70;88.70;;;;;;5027548;28;20475;-66
2021/04/25 07:20:08;;;;;;;15.75;2.08;;;7.70;89.50;;;;;;5027631;28;20040;-66
2021/04/25 07:22:35;;;;;;;8.15;1.48;;;7.70;89.50;;;;;;5025082;28;20129;-66
2021/04/25 07:25:01;;;;;;;13.25;1.23;;;7.80;89.40;;;;;;5028287;28;20524;-66
2021/04/25 07:27:26;;;;;;;5.53;1.00;;;7.70;89.20;;;;;;5028760;28;20049;-66
2021/04/25 07:29:52;;;;;;;14.60;1.85;;;7.60;90.00;;;;;;5028409;28;20415;-66
2021/04/25 07:32:18;;;;;;;10.07;1.75;;;7.60;89.90;;;;;;5027654;28;20560;-66
2021/04/25 07:34:45;;;;;;;13.38;1.45;;;7.60;90.00;;;;;;5028091;28;20052;-66
2021/04/25 07:37:11;;;;;;;9.85;1.45;;;7.60;89.50;;;;;;5027736;28;20029;-66
2021/04/25 07:39:38;;;;;;;11.93;1.10;;;7.60;89.10;;;;;;5028361;28;20120;-66
2021/04/25 07:42:04;;;;;;;6.80;0.93;;;7.60;90.20;;;;;;5025628;28;20618;-65
2021/04/25 07:44:30;;;;;;;8.82;1.08;;;7.70;90.90;;;;;;5026707;28;20037;-66
2021/04/25 07:46:56;;;;;;;7.25;1.15;;;7.80;90.60;;;;;;5027211;28;20041;-66
2021/04/25 07:49:22;;;;;;;4.95;1.02;;;7.80;90.80;;;;;;5026969;28;20045;-66
2021/04/25 07:51:48;;;;;;;9.73;1.95;;;7.70;91.00;;;;;;5028122;28;20152;-66
2021/04/25 07:54:14;;;;;;;9.65;1.08;;;7.90;90.60;;;;;;5026767;28;20625;-66
2021/04/25 07:56:40;;;;;;;6.78;1.17;;;7.80;90.80;;;;;;5027477;28;20050;-66
2021/04/25 07:59:06;;;;;;;17.58;1.25;;;7.80;90.80;;;;;;5027415;28;20030;-66
2021/04/25 08:01:32;;;;;;;9.98;1.80;;;7.80;90.30;;;;;;5027344;28;20052;-66
2021/04/25 08:03:58;;;;;;;6.97;1.35;;;7.80;89.30;;;;;;5027673;28;20052;-66
2021/04/25 08:06:26;;;;;;;9.27;1.45;;;7.80;89.80;;;;;;5028559;28;20051;-66
2021/04/25 08:08:55;;;;;;;8.38;1.42;;;7.80;88.30;;;;;;5032056;28;20048;-66
2021/04/25 08:11:21;;;;;;;16.67;2.15;;;7.90;89.00;;;;;;5028883;28;20821;-66
2021/04/25 08:13:47;;;;;;;7.45;1.13;;;7.90;89.00;;;;;;5030345;28;20052;-66
2021/04/25 08:16:14;;;;;;;7.38;1.48;;;8.00;88.00;;;;;;5029007;28;20049;-66
2021/04/25 08:18:43;;;;;;;11.15;1.10;;;7.80;86.50;;;;;;5031672;28;20041;-66
2021/04/25 08:21:09;;;;;;;7.63;1.23;;;8.30;84.70;;;;;;5030244;28;20475;-66
2021/04/25 08:23:36;;;;;;;8.70;1.05;;;8.30;83.80;;;;;;5028799;28;20038;-66
2021/04/25 08:26:06;;;;;;;11.13;0.98;;;8.30;82.80;;;;;;5030635;28;20059;-66
2021/04/25 08:28:32;;;;;;;6.68;0.70;;;8.40;83.90;;;;;;5031419;28;20033;-66
2021/04/25 08:30:58;;;;;;;10.15;1.98;;;8.40;80.50;;;;;;5031143;28;20044;-66
2021/04/25 08:33:24;;;;;;;8.13;0.80;;;8.40;80.10;;;;;;5029592;28;20040;-66
2021/04/25 08:35:50;;;;;;;8.32;0.80;;;8.40;79.20;;;;;;5031123;28;20487;-66
2021/04/25 08:38:16;;;;;;;5.20;1.20;;;8.40;79.20;;;;;;5030911;28;20041;-66
2021/04/25 08:40:41;;;;;;;7.45;1.00;;;8.40;80.60;;;;;;5030905;28;20048;-66
2021/04/25 08:43:11;;;;;;;4.10;0.85;;;8.50;80.90;;;;;;5030841;28;20164;-66
2021/04/25 08:45:39;;;;;;;11.02;1.00;;;8.50;79.40;;;;;;5030613;28;20107;-66
2021/04/25 08:48:06;;;;;;;8.90;1.70;;;8.60;81.80;;;;;;5030915;28;20095;-66
2021/04/25 08:50:33;;;;;;;8.25;0.75;;;8.60;81.70;;;;;;5029809;28;20037;-66
2021/04/25 08:52:59;;;;;;;5.30;1.58;;;8.60;82.40;;;;;;5029091;28;20073;-66
2021/04/25 08:55:25;;;;;;;9.55;1.15;;;8.80;83.00;;;;;;5029614;28;20048;-66
2021/04/25 08:57:51;;;;;;;9.07;0.85;;;8.90;79.50;;;;;;5030386;28;20081;-66
2021/04/25 09:00:19;;;;;;;7.80;1.60;;;8.80;79.90;;;;;;5025938;28;20041;-66
2021/04/25 09:02:46;;;;;;;5.80;0.68;;;8.80;80.60;;;;;;5026946;28;20049;-66
2021/04/25 09:05:12;;;;;;;12.23;1.33;;;8.80;78.40;;;;;;5023655;28;20496;-66
2021/04/25 09:07:55;;;;;;;7.43;0.68;;;8.80;80.00;;;;;;5023098;28;20411;-66
2021/04/25 09:10:39;;;;;;;6.47;0.70;;;8.80;78.40;;;;;;5023580;28;20042;-65
2021/04/25 09:13:14;;;;;;;6.93;0.50;;;8.80;77.10;;;;;;5030318;28;20044;-66
2021/04/25 09:15:40;;;;;;;7.82;1.25;;;8.70;77.20;;;;;;5029700;28;20480;-66
2021/04/25 09:18:06;;;;;;;9.25;0.80;;;8.90;80.40;;;;;;5029842;28;20049;-66
2021/04/25 09:20:34;;;;;;;8.73;0.82;;;9.00;80.70;;;;;;5030105;28;20033;-66
2021/04/25 09:23:01;;;;;;;7.78;0.80;;;9.00;79.60;;;;;;5029764;28;20041;-66
2021/04/25 09:25:27;;;;;;;6.03;1.00;;;8.90;77.90;;;;;;5006733;28;20187;-66
2021/04/25 09:27:53;;;;;;;7.25;1.08;;;8.90;76.60;;;;;;5030472;28;20049;-66
2021/04/25 09:30:23;;;;;;;5.97;1.08;;;8.80;76.50;;;;;;5030636;28;20037;-66
2021/04/25 09:32:58;;;;;;;11.48;1.98;;;8.90;78.50;;;;;;5029838;28;20030;-66
2021/04/25 09:35:25;;;;;;;8.48;1.38;;;8.80;79.10;;;;;;5026948;28;20041;-66
2021/04/25 09:37:50;;;;;;;4.03;1.00;;;8.80;78.80;;;;;;5027081;28;20090;-66
2021/04/25 09:40:26;;;;;;;7.72;1.23;;;8.70;78.20;;;;;;5027204;28;20041;-66
2021/04/25 09:43:07;;;;;;;10.90;1.58;;;8.60;79.50;;;;;;5030297;28;20038;-66
2021/04/25 09:45:38;;;;;;;4.03;0.65;;;8.70;80.20;;;;;;5026849;28;20087;-66
2021/04/25 09:48:30;;;;;;;14.05;1.20;;;8.70;78.20;;;;;;5028580;28;20092;-66
2021/04/25 09:51:08;;;;;;;11.55;1.25;;;8.80;80.20;;;;;;5029408;28;20045;-66
2021/04/25 09:53:35;;;;;;;12.68;1.48;;;8.70;79.80;;;;;;5028258;28;20051;-66
2021/04/25 09:56:01;;;;;;;9.40;0.88;;;8.80;80.90;;;;;;5027082;28;20041;-66
2021/04/25 09:58:27;;;;;;;7.72;1.02;;;8.80;80.90;;;;;;5023472;28;20044;-66
2021/04/25 10:00:54;;;;;;;6.40;0.85;;;8.90;81.60;;;;;;5022901;28;20056;-66
2021/04/25 10:03:21;;;;;;;7.78;1.13;;;9.00;80.50;;;;;;5023128;28;20048;-66
2021/04/25 10:06:01;;;;;;;3.92;0.75;;;9.10;79.30;;;;;;5022968;28;20088;-66
2021/04/25 10:08:33;;;;;;;7.25;0.98;;;9.00;76.80;;;;;;5029544;28;20052;-66
2021/04/25 10:11:03;;;;;;;8.73;1.92;;;9.20;77.70;;;;;;5026647;28;20049;-66
2021/04/25 10:13:30;;;;;;;3.00;0.60;;;9.30;74.50;;;;;;5028243;28;20525;-66
2021/04/25 10:15:56;;;;;;;9.13;0.93;;;9.30;74.90;;;;;;5029839;28;20053;-66
2021/04/25 10:18:22;;;;;;;4.82;0.90;;;9.40;73.40;;;;;;5025520;28;20065;-66
2021/04/25 10:20:50;;;;;;;5.95;0.90;;;9.40;74.30;;;;;;5026067;28;20037;-66
2021/04/25 10:23:16;;;;;;;9.07;1.05;;;9.50;77.40;;;;;;5028645;28;20464;-66
2021/04/25 10:25:42;;;;;;;5.53;0.80;;;9.60;75.80;;;;;;5028704;28;20048;-66
2021/04/25 10:28:26;;;;;;;5.13;0.68;;;9.60;73.80;;;;;;5030419;28;20140;-66
2021/04/25 10:31:00;;;;;;;7.43;0.90;;;9.70;74.60;;;;;;5028880;28;20061;-66
2021/04/25 10:34:01;;;;;;;5.28;1.00;;;9.70;75.90;;;;;;5028433;28;20415;-66
2021/04/25 10:36:44;;;;;;;7.72;1.25;;;9.80;76.00;;;;;;5028179;28;20041;-66
2021/04/25 10:39:31;;;;;;;7.15;1.15;;;9.90;75.40;;;;;;5027788;28;20036;-66
2021/04/25 10:42:29;;;;;;;7.15;1.05;;;10.00;72.40;;;;;;5026915;28;20046;-66
2021/04/25 10:45:04;;;;;;;5.80;0.88;;;10.10;76.10;;;;;;5028569;28;20045;-66
2021/04/25 10:47:37;;;;;;;13.70;1.52;;;10.10;72.20;;;;;;5020265;28;20060;-66
2021/04/25 10:50:14;;;;;;;6.15;0.60;;;10.30;73.90;;;;;;5028272;28;20044;-66
2021/04/25 10:52:47;;;;;;;12.75;1.85;;;10.20;72.70;;;;;;5027561;28;20045;-66
2021/04/25 10:55:28;;;;;;;8.05;0.80;;;10.30;74.80;;;;;;5027347;28;20476;-66
2021/04/25 10:57:59;;;;;;;12.45;1.27;;;10.30;72.60;;;;;;5025583;28;20029;-66
2021/04/25 11:00:31;;;;;;;6.35;0.95;;;10.30;72.30;;;;;;5021232;28;20095;-66
2021/04/25 11:03:20;;;;;;;6.82;1.23;;;10.30;71.50;;;;;;5023682;28;20030;-66
2021/04/25 11:05:52;;;;;;;11.32;1.40;;;10.40;70.80;;;;;;5019321;28;20057;-66
2021/04/25 11:08:30;;;;;;;6.93;1.80;;;10.30;71.60;;;;;;5025600;28;20096;-66
2021/04/25 11:10:56;;;;;;;10.82;1.10;;;10.30;73.80;;;;;;5016444;28;20391;-66
2021/04/25 11:13:39;;;;;;;7.05;1.98;;;10.30;70.80;;;;;;5020698;28;20037;-67
2021/04/25 11:16:16;;;;;;;6.68;0.95;;;10.40;72.70;;;;;;5020755;28;20096;-66
2021/04/25 11:18:52;;;;;;;9.73;1.10;;;10.50;72.60;;;;;;5024394;28;20033;-66
2021/04/25 11:21:31;;;;;;;;;;;10.50;71.60;;;;;;5025888;28;20040;-66
2021/04/25 11:24:03;;;;;;;8.48;1.10;;;10.90;73.30;;;;;;5024052;28;19932;-66
2021/04/25 11:26:41;;;;;;;6.32;1.10;;;11.10;71.00;;;;;;5020128;28;20066;-66
2021/04/25 11:29:15;;;;;;;6.20;1.35;;;11.10;66.50;;;;;;5015180;28;20507;-66
2021/04/25 11:31:47;;;;;;;7.50;1.42;;;11.10;68.40;;;;;;5023948;28;20518;-66
2021/04/25 11:34:31;;;;;;;5.32;0.75;;;11.10;67.60;;;;;;5025750;28;20042;-66
2021/04/25 11:37:00;;;;;;;9.05;1.05;;;11.10;64.60;;;;;;5021973;28;20045;-66
2021/04/25 11:40:07;;;;;;;6.00;1.55;;;11.10;65.90;;;;;;5024943;28;20116;-66
2021/04/25 11:42:47;;;;;;;6.25;1.00;;;11.40;67.40;;;;;;5027013;28;20054;-66
2021/04/25 11:45:42;;;;;;;5.00;0.73;;;11.10;62.10;;;;;;5032572;28;20403;-66
2021/04/25 11:48:08;;;;;;;7.22;1.20;;;11.50;64.40;;;;;;5028193;28;20141;-66
2021/04/25 11:50:37;;;;;;;4.68;0.82;;;11.70;60.10;;;;;;5030488;28;20037;-67
2021/04/25 11:53:03;;;;;;;5.50;1.00;;;11.90;60.80;;;;;;5031415;28;20045;-66
2021/04/25 11:55:30;;;;;;;7.63;1.33;;;12.30;60.40;;;;;;5030040;28;20041;-66
2021/04/25 11:57:56;;;;;;;5.95;1.25;;;12.60;62.60;;;;;;5028552;28;20109;-67
2021/04/25 12:00:28;;;;;;;7.03;0.82;;;12.70;58.90;;;;;;5028430;28;20086;-67
2021/04/25 12:02:58;;;;;;;7.15;1.27;;;12.70;61.40;;;;;;5032120;28;20045;-67
2021/04/25 12:05:32;;;;;;;6.63;1.20;;;12.80;62.80;;;;;;5030096;28;20041;-67
2021/04/25 12:08:00;;;;;;;7.68;0.90;;;12.90;60.70;;;;;;5031021;28;20060;-67
2021/04/25 12:10:41;;;;;;;5.97;0.70;;;12.90;57.70;;;;;;5031078;28;20033;-67
2021/04/25 12:13:07;;;;;;;6.78;0.82;;;12.80;57.30;;;;;;5032131;28;20045;-67
2021/04/25 12:15:39;;;;;;;7.80;1.00;;;12.40;59.80;;;;;;5033585;28;20048;-67
2021/04/25 12:18:05;;;;;;;4.88;0.93;;;12.30;60.10;;;;;;5031718;28;20648;-67
2021/04/25 12:20:30;;;;;;;5.47;0.82;;;12.30;57.70;;;;;;5031256;28;20172;-67
2021/04/25 12:22:56;;;;;;;5.75;0.90;;;12.40;59.50;;;;;;5031757;28;20551;-67
2021/04/25 12:25:23;;;;;;;9.70;1.50;;;12.70;63.00;;;;;;5031456;28;20051;-67
2021/04/25 12:27:56;;;;;;;8.55;1.30;;;13.00;61.00;;;;;;5031608;28;20507;-67
2021/04/25 12:30:27;;;;;;;5.97;1.10;;;13.20;60.00;;;;;;5031519;28;20140;-67
2021/04/25 12:33:19;;;;;;;7.35;1.02;;;13.10;59.70;;;;;;5031480;28;20076;-67
2021/04/25 12:35:51;;;;;;;4.80;0.80;;;12.70;57.10;;;;;;5027804;28;20411;-67
2021/04/25 12:38:24;;;;;;;8.80;1.10;;;12.30;58.40;;;;;;5031712;28;20038;-67
2021/04/25 12:41:06;;;;;;;7.95;0.90;;;12.30;60.10;;;;;;5029478;28;20041;-67
2021/04/25 12:43:35;;;;;;;7.05;1.20;;;12.60;64.80;;;;;;5029215;28;20091;-67
2021/04/25 12:46:12;;;;;;;5.47;1.00;;;13.00;63.80;;;;;;5027235;28;20821;-66
2021/04/25 12:48:40;;;;;;;4.68;0.95;;;13.50;62.60;;;;;;5031744;28;20039;-67
2021/04/25 12:51:19;;;;;;;5.70;1.17;;;13.70;60.40;;;;;;5031300;28;20037;-67
2021/04/25 12:53:57;;;;;;;11.73;1.40;;;13.60;59.50;;;;;;5030084;28;20463;-67
2021/04/25 12:56:29;;;;;;;5.03;0.88;;;13.40;58.80;;;;;;5030531;28;20060;-67
2021/04/25 12:58:56;;;;;;;4.68;0.93;;;13.20;60.50;;;;;;5028522;28;20083;-67